createdAt,value
2018-02-24T00:00:26.877Z,13.57
2018-02-24T00:02:58.079Z,14.55
2018-02-24T00:05:29.398Z,14.27
2018-02-24T00:08:00.593Z,14.38
2018-02-24T00:10:31.816Z,14.23
2018-02-24T00:13:03.016Z,13.88
2018-02-24T00:15:34.339Z,14.38
2018-02-24T00:18:05.494Z,14.70
2018-02-24T00:20:37.475Z,14.48
2018-02-24T00:23:08.653Z,14.63
2018-02-24T00:25:39.874Z,14.63
2018-02-24T00:28:11.078Z,13.75
2018-02-24T00:30:42.237Z,13.75
2018-02-24T00:33:14.197Z,15.15
2018-02-24T00:35:46.220Z,13.95
2018-02-24T00:38:17.405Z,13.70
2018-02-24T00:40:49.386Z,13.68
2018-02-24T00:43:20.574Z,13.98
2018-02-24T00:45:51.774Z,13.80
2018-02-24T00:48:22.987Z,14.25
2018-02-24T00:50:55.000Z,15.23
2018-02-24T00:53:26.206Z,14.45
2018-02-24T00:55:58.219Z,14.35
2018-02-24T00:58:29.426Z,13.20
2018-02-24T01:01:00.628Z,13.90
2018-02-24T01:03:31.810Z,13.73
2018-02-24T01:06:03.012Z,15.25
2018-02-24T01:08:34.198Z,14.63
2018-02-24T01:11:05.419Z,13.62
2018-02-24T01:13:37.352Z,14.15
2018-02-24T01:16:08.960Z,14.38
2018-02-24T01:18:40.208Z,14.20
2018-02-24T01:21:11.418Z,14.30
2018-02-24T01:23:43.344Z,15.27
2018-02-24T01:26:14.579Z,15.35
2018-02-24T01:28:45.796Z,15.35
2018-02-24T01:31:17.050Z,14.93
2018-02-24T01:33:48.251Z,14.80
2018-02-24T01:36:20.264Z,15.55
2018-02-24T01:38:51.487Z,15.70
2018-02-24T01:41:22.644Z,14.60
2018-02-24T01:43:53.850Z,14.13
2018-02-24T01:46:25.769Z,14.40
2018-02-24T01:48:56.979Z,14.27
2018-02-24T01:51:28.139Z,14.43
2018-02-24T01:53:59.972Z,14.15
2018-02-24T01:56:31.214Z,15.02
2018-02-24T01:59:02.396Z,14.40
2018-02-24T02:01:33.813Z,14.27
2018-02-24T02:04:04.987Z,15.02
2018-02-24T02:06:36.200Z,16.52
2018-02-24T02:09:07.380Z,14.65
2018-02-24T02:11:38.585Z,16.02
2018-02-24T02:14:09.770Z,17.45
2018-02-24T02:16:41.179Z,15.20
2018-02-24T02:19:12.403Z,16.58
2018-02-24T02:21:43.622Z,15.82
2018-02-24T02:24:14.794Z,16.55
2018-02-24T02:26:46.386Z,16.65
2018-02-24T02:29:17.560Z,15.95
2018-02-24T02:31:50.232Z,15.55
2018-02-24T02:34:21.440Z,16.67
2018-02-24T02:36:52.660Z,16.58
2018-02-24T02:39:23.904Z,13.60
2018-02-24T02:41:55.107Z,12.82
2018-02-24T02:44:26.416Z,14.43
2018-02-24T02:46:57.637Z,12.10
2018-02-24T02:49:28.828Z,13.77
2018-02-24T02:52:00.022Z,12.55
2018-02-24T02:54:31.557Z,12.88
2018-02-24T02:57:03.611Z,13.65
2018-02-24T02:59:34.998Z,13.07
2018-02-24T03:02:06.204Z,12.45
2018-02-24T03:04:38.185Z,12.27
2018-02-24T03:07:10.119Z,12.18
2018-02-24T03:09:41.360Z,11.02
2018-02-24T03:12:12.559Z,10.90
2018-02-24T03:14:43.786Z,10.38
2018-02-24T03:17:15.096Z,11.68
2018-02-24T03:19:46.308Z,11.43
2018-02-24T03:22:17.501Z,11.18
2018-02-24T03:24:49.450Z,12.32
2018-02-24T03:27:20.637Z,10.43
2018-02-24T03:29:52.000Z,11.80
2018-02-24T03:32:23.287Z,11.50
2018-02-24T03:34:55.212Z,11.82
2018-02-24T03:37:26.471Z,11.45
2018-02-24T03:39:57.653Z,11.90
2018-02-24T03:42:28.897Z,10.77
2018-02-24T03:45:00.110Z,10.65
2018-02-24T03:47:32.092Z,11.88
2018-02-24T03:50:04.072Z,11.32
2018-02-24T03:52:35.952Z,10.25
2018-02-24T03:55:07.139Z,10.38
2018-02-24T03:57:38.459Z,9.95
2018-02-24T04:00:09.667Z,11.30
2018-02-24T04:02:40.884Z,11.35
2018-02-24T04:05:12.814Z,10.35
2018-02-24T04:07:44.342Z,10.73
2018-02-24T04:10:15.575Z,10.93
2018-02-24T04:12:47.115Z,10.25
2018-02-24T04:15:18.313Z,10.95
2018-02-24T04:17:49.703Z,11.00
2018-02-24T04:20:21.675Z,10.77
2018-02-24T04:22:52.865Z,11.23
2018-02-24T04:25:24.108Z,10.95
2018-02-24T04:27:55.563Z,9.98
2018-02-24T04:30:26.762Z,10.10
2018-02-24T04:32:58.099Z,10.57
2018-02-24T04:35:29.298Z,10.45
2018-02-24T04:38:00.661Z,10.23
2018-02-24T04:40:32.616Z,10.20
2018-02-24T04:43:03.888Z,10.73
2018-02-24T04:45:35.471Z,10.63
2018-02-24T04:48:06.669Z,10.63
2018-02-24T04:50:37.906Z,11.70
2018-02-24T04:53:10.347Z,11.35
2018-02-24T04:55:41.534Z,11.73
2018-02-24T04:58:12.812Z,11.40
2018-02-24T05:00:43.996Z,10.60
2018-02-24T05:03:15.216Z,11.48
2018-02-24T05:05:46.407Z,11.90
2018-02-24T05:08:18.012Z,12.18
2018-02-24T05:10:49.444Z,11.32
2018-02-24T05:13:20.812Z,11.48
2018-02-24T05:15:52.037Z,11.73
2018-02-24T05:18:23.337Z,11.38
2018-02-24T05:20:55.309Z,12.18
2018-02-24T05:23:26.567Z,11.07
2018-02-24T05:25:57.723Z,11.77
2018-02-24T05:28:28.944Z,11.97
2018-02-24T05:31:00.145Z,11.57
2018-02-24T05:33:31.385Z,11.80
2018-02-24T05:36:02.612Z,11.27
2018-02-24T05:38:33.922Z,11.97
2018-02-24T05:41:05.884Z,11.47
2018-02-24T05:43:37.825Z,12.10
2018-02-24T05:46:09.016Z,10.83
2018-02-24T05:48:40.471Z,11.53
2018-02-24T05:51:11.660Z,11.03
2018-02-24T05:53:42.913Z,10.00
2018-02-24T05:56:14.853Z,10.40
2018-02-24T05:58:46.922Z,10.33
2018-02-24T06:01:18.882Z,10.10
2018-02-24T06:03:50.294Z,9.63
2018-02-24T06:06:21.506Z,10.60
2018-02-24T06:08:53.467Z,10.50
2018-02-24T06:11:24.670Z,9.57
2018-02-24T06:13:55.864Z,10.07
2018-02-24T06:16:27.072Z,9.70
2018-02-24T06:18:58.368Z,9.83
2018-02-24T06:21:29.614Z,10.43
2018-02-24T06:24:00.885Z,9.63
2018-02-24T06:26:32.140Z,8.80
2018-02-24T06:29:03.339Z,9.23
2018-02-24T06:31:34.609Z,8.40
2018-02-24T06:34:05.791Z,9.17
2018-02-24T06:36:38.005Z,8.37
2018-02-24T06:39:09.332Z,7.63
2018-02-24T06:41:41.263Z,6.50
2018-02-24T06:44:12.462Z,5.80
2018-02-24T06:46:43.725Z,5.67
2018-02-24T06:49:14.980Z,4.67
2018-02-24T06:51:46.203Z,4.40
2018-02-24T06:54:17.524Z,4.53
2018-02-24T06:56:49.112Z,4.40
2018-02-24T06:59:20.504Z,4.50
2018-02-24T07:01:52.464Z,4.77
2018-02-24T07:04:24.455Z,4.60
2018-02-24T07:06:55.682Z,4.50
2018-02-24T07:09:27.635Z,5.30
2018-02-24T07:11:58.856Z,4.30
2018-02-24T07:14:30.854Z,4.43
2018-02-24T07:17:02.088Z,4.00
2018-02-24T07:19:33.465Z,3.70
2018-02-24T07:22:05.012Z,4.10
2018-02-24T07:24:36.216Z,3.53
2018-02-24T07:27:08.196Z,3.03
2018-02-24T07:29:39.412Z,3.73
2018-02-24T07:32:11.429Z,3.25
2018-02-24T07:34:42.616Z,3.62
2018-02-24T07:37:14.636Z,3.85
2018-02-24T07:39:45.808Z,2.80
2018-02-24T07:42:17.433Z,2.70
2018-02-24T07:44:48.656Z,2.37
2018-02-24T07:47:19.980Z,2.53
2018-02-24T07:49:51.210Z,2.60
2018-02-24T07:52:23.248Z,2.50
2018-02-24T07:54:54.414Z,2.80
2018-02-24T07:57:25.674Z,2.47
2018-02-24T07:59:57.671Z,2.70
2018-02-24T08:02:28.884Z,2.80
2018-02-24T08:05:00.831Z,2.27
2018-02-24T08:07:32.125Z,2.60
2018-02-24T08:10:03.318Z,2.47
2018-02-24T08:12:34.574Z,2.53
2018-02-24T08:15:06.502Z,1.97
2018-02-24T08:17:38.022Z,2.27
2018-02-24T08:20:09.223Z,2.17
2018-02-24T08:22:41.200Z,2.20
2018-02-24T08:25:13.199Z,2.23
2018-02-24T08:27:44.431Z,2.10
2018-02-24T08:30:15.650Z,2.53
2018-02-24T08:32:47.608Z,2.20
2018-02-24T08:35:19.505Z,2.17
2018-02-24T08:37:51.074Z,2.30
2018-02-24T08:40:23.129Z,2.47
2018-02-24T08:42:54.308Z,2.00
2018-02-24T08:45:26.260Z,2.43
2018-02-24T08:47:57.458Z,1.90
2018-02-24T08:50:28.659Z,2.47
2018-02-24T08:53:00.610Z,1.83
2018-02-24T08:55:32.066Z,2.33
2018-02-24T08:58:03.260Z,2.10
2018-02-24T09:00:34.699Z,2.13
2018-02-24T09:03:05.886Z,2.03
2018-02-24T09:05:37.114Z,2.50
2018-02-24T09:08:08.288Z,2.67
2018-02-24T09:10:39.553Z,2.47
2018-02-24T09:13:10.726Z,2.57
2018-02-24T09:15:41.940Z,2.80
2018-02-24T09:18:13.905Z,2.00
2018-02-24T09:20:46.204Z,2.67
2018-02-24T09:23:17.416Z,2.40
2018-02-24T09:25:48.751Z,2.33
2018-02-24T09:28:20.776Z,2.43
2018-02-24T09:30:52.049Z,2.90
2018-02-24T09:33:23.293Z,2.80
2018-02-24T09:35:55.268Z,3.23
2018-02-24T09:38:27.289Z,3.50
2018-02-24T09:40:58.620Z,2.93
2018-02-24T09:43:29.856Z,2.93
2018-02-24T09:46:01.132Z,3.00
2018-02-24T09:48:32.299Z,3.20
2018-02-24T09:51:03.605Z,2.77
2018-02-24T09:53:34.873Z,2.87
2018-02-24T09:56:06.172Z,2.40
2018-02-24T09:58:37.390Z,2.73
2018-02-24T10:01:09.699Z,2.97
2018-02-24T10:03:40.907Z,2.63
2018-02-24T10:06:13.118Z,3.10
2018-02-24T10:08:44.349Z,2.23
2018-02-24T10:11:16.584Z,2.83
2018-02-24T10:13:47.763Z,2.80
2018-02-24T10:16:19.045Z,2.73
2018-02-24T10:18:50.553Z,3.27
2018-02-24T10:21:21.800Z,3.20
2018-02-24T10:23:53.089Z,3.53
2018-02-24T10:26:24.342Z,3.10
2018-02-24T10:28:56.304Z,2.87
2018-02-24T10:31:27.494Z,2.30
2018-02-24T10:33:58.771Z,2.93
2018-02-24T10:36:30.002Z,2.73
2018-02-24T10:39:01.256Z,2.40
2018-02-24T10:41:32.479Z,2.93
2018-02-24T10:44:03.706Z,2.87
2018-02-24T10:46:34.964Z,2.50
2018-02-24T10:49:12.669Z,2.60
2018-02-24T10:51:43.995Z,2.93
2018-02-24T10:54:15.215Z,3.07
2018-02-24T10:56:46.468Z,3.30
2018-02-24T10:59:18.506Z,2.97
2018-02-24T11:01:50.603Z,3.07
2018-02-24T11:04:21.857Z,3.33
2018-02-24T11:06:53.186Z,3.70
2018-02-24T11:09:24.559Z,3.30
2018-02-24T11:11:55.771Z,3.20
2018-02-24T11:14:27.014Z,3.20
2018-02-24T11:16:58.272Z,4.00
2018-02-24T11:19:29.490Z,2.50
2018-02-24T11:22:00.808Z,3.03
2018-02-24T11:24:32.019Z,3.20
2018-02-24T11:27:04.928Z,3.30
2018-02-24T11:29:36.292Z,2.97
2018-02-24T11:32:07.468Z,2.87
2018-02-24T11:34:38.712Z,3.40
2018-02-24T11:37:09.966Z,3.20
2018-02-24T11:39:41.330Z,3.30
2018-02-24T11:42:12.699Z,3.23
2018-02-24T11:44:44.170Z,3.30
2018-02-24T11:47:16.394Z,3.70
2018-02-24T11:49:47.631Z,3.30
2018-02-24T11:52:19.223Z,3.50
2018-02-24T11:54:50.468Z,3.70
2018-02-24T11:57:21.761Z,3.60
2018-02-24T11:59:52.985Z,3.37
2018-02-24T12:02:24.484Z,3.37
2018-02-24T12:04:55.803Z,3.13
2018-02-24T12:07:27.949Z,3.20
2018-02-24T12:09:59.339Z,3.30
2018-02-24T12:12:30.653Z,3.47
2018-02-24T12:15:02.587Z,3.50
2018-02-24T12:17:33.831Z,2.80
2018-02-24T12:20:05.057Z,2.50
2018-02-24T12:22:36.401Z,2.80
2018-02-24T12:25:07.623Z,3.27
2018-02-24T12:27:38.912Z,3.00
2018-02-24T12:30:10.133Z,2.53
2018-02-24T12:32:41.377Z,2.80
2018-02-24T12:35:13.345Z,3.00
2018-02-24T12:37:44.609Z,3.13
2018-02-24T12:40:16.631Z,3.20
2018-02-24T12:42:48.182Z,2.70
2018-02-24T12:45:19.448Z,2.93
2018-02-24T12:47:50.862Z,2.50
2018-02-24T12:50:22.130Z,2.53
2018-02-24T12:52:54.098Z,2.80
2018-02-24T12:55:25.318Z,2.60
2018-02-24T12:57:56.633Z,2.80
2018-02-24T13:00:27.835Z,2.90
2018-02-24T13:02:59.202Z,2.67
2018-02-24T13:05:30.521Z,2.80
2018-02-24T13:08:01.788Z,2.70
2018-02-24T13:10:33.604Z,2.40
2018-02-24T13:13:05.001Z,2.47
2018-02-24T13:15:36.253Z,2.90
2018-02-24T13:18:07.507Z,3.43
2018-02-24T13:20:38.734Z,2.70
2018-02-24T13:23:10.122Z,2.73
2018-02-24T13:25:41.398Z,2.90
2018-02-24T13:28:12.636Z,2.80
2018-02-24T13:30:44.060Z,2.97
2018-02-24T13:33:15.330Z,3.00
2018-02-24T13:35:46.564Z,2.90
2018-02-24T13:38:18.019Z,2.67
2018-02-24T13:40:49.216Z,3.30
2018-02-24T13:43:20.549Z,3.37
2018-02-24T13:45:51.780Z,3.20
2018-02-24T13:48:23.039Z,3.17
2018-02-24T13:50:54.230Z,3.30
2018-02-24T13:53:25.805Z,3.10
2018-02-24T13:55:57.141Z,3.30
2018-02-24T13:58:28.345Z,3.40
2018-02-24T14:00:59.547Z,3.37
2018-02-24T14:03:30.843Z,3.30
2018-02-24T14:06:02.076Z,2.90
2018-02-24T14:08:33.315Z,2.70
2018-02-24T14:11:04.701Z,3.37
2018-02-24T14:13:35.960Z,3.40
2018-02-24T14:16:07.193Z,3.20
2018-02-24T14:18:38.665Z,4.33
2018-02-24T14:21:09.899Z,3.00
2018-02-24T14:23:41.192Z,3.20
2018-02-24T14:26:12.426Z,3.10
2018-02-24T14:28:43.609Z,3.50
2018-02-24T14:31:14.889Z,3.33
2018-02-24T14:33:46.363Z,2.97
2018-02-24T14:36:17.576Z,3.30
2018-02-24T14:38:48.849Z,3.30
2018-02-24T14:41:20.073Z,3.53
2018-02-24T14:43:51.348Z,3.93
2018-02-24T14:46:22.631Z,3.73
2018-02-24T14:48:53.879Z,3.37
2018-02-24T14:51:25.208Z,3.70
2018-02-24T14:53:57.320Z,3.80
2018-02-24T14:56:28.877Z,3.50
2018-02-24T14:59:00.092Z,3.20
2018-02-24T15:01:31.360Z,3.33
2018-02-24T15:04:03.096Z,3.80
2018-02-24T15:06:34.305Z,3.87
2018-02-24T15:09:06.332Z,3.83
2018-02-24T15:11:37.529Z,3.57
2018-02-24T15:14:08.782Z,3.10
2018-02-24T15:16:39.950Z,4.30
2018-02-24T15:19:11.186Z,3.80
2018-02-24T15:21:42.438Z,3.70
2018-02-24T15:24:13.697Z,3.53
2018-02-24T15:26:45.674Z,3.67
2018-02-24T15:29:17.789Z,4.00
2018-02-24T15:31:49.010Z,4.93
2018-02-24T15:34:21.121Z,3.63
2018-02-24T15:36:52.355Z,3.17
2018-02-24T15:39:23.746Z,3.50
2018-02-24T15:41:54.951Z,4.27
2018-02-24T15:44:26.240Z,3.80
2018-02-24T15:46:58.221Z,3.70
2018-02-24T15:49:29.451Z,4.07
2018-02-24T15:52:01.376Z,3.57
2018-02-24T15:54:32.673Z,3.63
2018-02-24T15:57:03.890Z,3.67
2018-02-24T15:59:35.841Z,3.50
2018-02-24T16:02:07.072Z,3.67
2018-02-24T16:04:38.341Z,3.40
2018-02-24T16:07:10.308Z,3.67
2018-02-24T16:09:41.856Z,3.80
2018-02-24T16:12:13.076Z,3.70
2018-02-24T16:14:44.341Z,3.33
2018-02-24T16:17:15.568Z,3.63
2018-02-24T16:19:46.810Z,3.20
2018-02-24T16:22:18.783Z,3.63
2018-02-24T16:24:50.062Z,3.47
2018-02-24T16:27:22.028Z,3.73
2018-02-24T16:29:53.351Z,3.83
2018-02-24T16:32:24.601Z,2.73
2018-02-24T16:34:56.599Z,3.60
2018-02-24T16:37:27.910Z,3.63
2018-02-24T16:39:59.917Z,3.80
2018-02-24T16:42:31.122Z,4.27
2018-02-24T16:45:03.230Z,3.60
2018-02-24T16:47:34.433Z,4.07
2018-02-24T16:50:06.017Z,3.72
2018-02-24T16:52:37.241Z,3.83
2018-02-24T16:55:08.596Z,4.17
2018-02-24T16:57:39.865Z,3.67
2018-02-24T17:00:11.068Z,3.97
2018-02-24T17:02:42.319Z,4.37
2018-02-24T17:05:13.602Z,4.10
2018-02-24T17:07:44.839Z,3.67
2018-02-24T17:10:16.052Z,3.97
2018-02-24T17:12:47.578Z,3.80
2018-02-24T17:15:18.789Z,3.93
2018-02-24T17:17:50.187Z,4.03
2018-02-24T17:20:21.515Z,3.93
2018-02-24T17:22:53.445Z,4.97
2018-02-24T17:25:24.706Z,4.87
2018-02-24T17:27:55.922Z,4.50
2018-02-24T17:30:27.153Z,4.27
2018-02-24T17:32:58.405Z,4.55
2018-02-24T17:35:29.642Z,4.23
2018-02-24T17:38:00.881Z,4.00
2018-02-24T17:40:32.129Z,4.63
2018-02-24T17:43:03.380Z,5.23
2018-02-24T17:45:34.669Z,5.10
2018-02-24T17:48:05.885Z,4.57
2018-02-24T17:50:37.901Z,4.53
2018-02-24T17:53:09.188Z,5.22
2018-02-24T17:55:40.439Z,4.75
2018-02-24T17:58:11.685Z,4.20
2018-02-24T18:00:42.964Z,4.53
2018-02-24T18:03:15.004Z,4.30
2018-02-24T18:05:46.347Z,4.97
2018-02-24T18:08:17.573Z,3.97
2018-02-24T18:10:48.819Z,4.80
2018-02-24T18:13:20.142Z,4.93
2018-02-24T18:15:51.340Z,6.23
2018-02-24T18:18:22.874Z,6.82
2018-02-24T18:20:54.160Z,5.78
2018-02-24T18:23:25.388Z,6.40
2018-02-24T18:25:57.474Z,6.35
2018-02-24T18:28:29.465Z,5.13
2018-02-24T18:31:00.712Z,5.57
2018-02-24T18:33:31.989Z,4.95
2018-02-24T18:36:04.053Z,4.67
2018-02-24T18:38:36.048Z,4.60
2018-02-24T18:41:08.082Z,4.45
2018-02-24T18:43:40.107Z,4.25
2018-02-24T18:46:11.432Z,4.43
2018-02-24T18:48:43.561Z,4.85
2018-02-24T18:51:14.861Z,5.30
2018-02-24T18:53:46.141Z,6.18
2018-02-24T18:56:18.120Z,5.43
2018-02-24T18:58:50.470Z,5.97
2018-02-24T19:01:21.721Z,5.60
2018-02-24T19:03:53.064Z,5.47
2018-02-24T19:06:24.427Z,5.25
2018-02-24T19:08:56.408Z,5.20
2018-02-24T19:11:28.039Z,4.90
2018-02-24T19:14:00.026Z,5.20
2018-02-24T19:16:31.352Z,5.85
2018-02-24T19:19:03.305Z,5.40
2018-02-24T19:21:34.532Z,5.25
2018-02-24T19:24:05.737Z,7.15
2018-02-24T19:26:37.123Z,6.05
2018-02-24T19:29:08.391Z,5.72
2018-02-24T19:31:40.406Z,6.40
2018-02-24T19:34:11.601Z,5.60
2018-02-24T19:36:43.747Z,5.80
2018-02-24T19:39:15.495Z,5.55
2018-02-24T19:41:47.143Z,5.85
2018-02-24T19:44:18.366Z,5.35
2018-02-24T19:46:49.633Z,5.85
2018-02-24T19:49:20.914Z,4.97
2018-02-24T19:51:52.160Z,5.30
2018-02-24T19:54:23.410Z,4.93
2018-02-24T19:56:55.604Z,4.75
2018-02-24T19:59:26.772Z,5.62
2018-02-24T21:23:59.790Z,4.20
2018-02-24T21:26:31.002Z,4.70
2018-02-24T21:29:02.229Z,5.30
2018-02-24T21:31:33.509Z,4.35
2018-02-24T21:34:04.711Z,5.22
2018-02-24T21:36:38.240Z,5.05
2018-02-24T21:39:09.446Z,4.57
2018-02-24T21:41:40.926Z,4.93
2018-02-24T21:44:12.687Z,4.35
2018-02-24T21:46:43.958Z,4.60
2018-02-24T21:49:15.525Z,4.70
2018-02-24T21:51:47.475Z,4.82
2018-02-24T21:54:18.882Z,4.50
2018-02-24T21:56:50.093Z,4.80
2018-02-24T21:59:22.057Z,4.20
2018-02-24T22:01:53.985Z,4.47
2018-02-24T22:04:25.311Z,5.18
2018-02-24T22:06:56.515Z,4.40
2018-02-24T22:09:28.206Z,5.10
2018-02-24T22:11:59.442Z,5.35
2018-02-24T22:14:30.743Z,4.70
2018-02-24T22:17:02.685Z,4.62
2018-02-24T22:19:33.954Z,4.68
2018-02-24T22:22:05.225Z,5.12
2018-02-24T22:24:36.437Z,4.70
2018-02-24T22:27:08.412Z,5.07
2018-02-24T22:29:39.680Z,5.00
2018-02-24T22:32:11.256Z,5.50
2018-02-24T22:34:42.459Z,5.40
2018-02-24T22:37:28.747Z,4.97
2018-02-24T22:40:00.028Z,4.60
2018-02-24T22:42:31.358Z,5.68
2018-02-24T22:45:02.567Z,5.32
2018-02-24T22:47:41.023Z,5.70
2018-02-24T22:50:12.573Z,5.55
2018-02-24T22:52:43.810Z,5.87
2018-02-24T22:55:15.069Z,5.60
2018-02-24T22:57:46.289Z,5.75
2018-02-24T23:00:18.319Z,5.25
2018-02-24T23:02:49.812Z,5.15
2018-02-24T23:05:21.081Z,5.22
2018-02-24T23:07:52.277Z,5.75
2018-02-24T23:10:23.648Z,4.97
2018-02-24T23:12:54.899Z,4.97
2018-02-24T23:15:26.272Z,5.18
2018-02-24T23:17:57.617Z,5.57
2018-02-24T23:20:28.895Z,5.15
2018-02-24T23:23:00.221Z,5.20
2018-02-24T23:25:31.455Z,5.85
2018-02-24T23:28:02.641Z,5.62
2018-02-24T23:30:34.622Z,5.40
2018-02-24T23:33:05.787Z,5.45
2018-02-24T23:35:37.062Z,5.62
2018-02-24T23:38:08.271Z,5.90
2018-02-24T23:40:39.500Z,5.43
2018-02-24T23:43:11.103Z,6.90
2018-02-24T23:45:42.324Z,6.43
2018-02-24T23:48:13.517Z,5.87
2018-02-24T23:50:44.761Z,5.62
2018-02-24T23:53:16.729Z,5.53
2018-02-24T23:55:48.805Z,6.07
2018-02-24T23:58:20.038Z,5.80
